sensor_id;sensor_type;location;lat;lon;timestamp;temperature;humidity
40059;SHT31;25763;49.972;8.568;2024-02-14T00:01:16;6.91;75.19
40059;SHT31;25763;49.972;8.568;2024-02-14T00:03:41;6.91;75.62
40059;SHT31;25763;49.972;8.568;2024-02-14T00:06:07;6.91;75.66
40059;SHT31;25763;49.972;8.568;2024-02-14T00:08:32;6.89;75.83
40059;SHT31;25763;49.972;8.568;2024-02-14T00:10:57;6.86;76.19
40059;SHT31;25763;49.972;8.568;2024-02-14T00:13:23;6.91;76.33
40059;SHT31;25763;49.972;8.568;2024-02-14T00:15:48;6.92;76.39
40059;SHT31;25763;49.972;8.568;2024-02-14T00:18:14;6.89;76.49
40059;SHT31;25763;49.972;8.568;2024-02-14T00:20:40;6.89;76.97
40059;SHT31;25763;49.972;8.568;2024-02-14T00:23:05;6.88;77.37
40059;SHT31;25763;49.972;8.568;2024-02-14T00:25:31;6.91;77.41
40059;SHT31;25763;49.972;8.568;2024-02-14T00:27:56;6.91;77.44
40059;SHT31;25763;49.972;8.568;2024-02-14T00:30:22;6.88;77.50
40059;SHT31;25763;49.972;8.568;2024-02-14T00:32:50;6.93;77.73
40059;SHT31;25763;49.972;8.568;2024-02-14T00:35:16;6.92;77.65
40059;SHT31;25763;49.972;8.568;2024-02-14T00:37:41;6.95;77.58
40059;SHT31;25763;49.972;8.568;2024-02-14T00:40:07;6.92;77.65
40059;SHT31;25763;49.972;8.568;2024-02-14T00:42:32;6.95;77.58
40059;SHT31;25763;49.972;8.568;2024-02-14T00:44:58;6.96;77.76
40059;SHT31;25763;49.972;8.568;2024-02-14T00:47:23;6.96;77.62
40059;SHT31;25763;49.972;8.568;2024-02-14T00:49:48;6.99;77.76
40059;SHT31;25763;49.972;8.568;2024-02-14T00:52:13;7.00;78.09
40059;SHT31;25763;49.972;8.568;2024-02-14T00:54:39;7.03;77.97
40059;SHT31;25763;49.972;8.568;2024-02-14T00:57:04;7.03;78.00
40059;SHT31;25763;49.972;8.568;2024-02-14T00:59:30;7.01;78.06
40059;SHT31;25763;49.972;8.568;2024-02-14T01:01:55;6.99;78.04
40059;SHT31;25763;49.972;8.568;2024-02-14T01:04:21;6.99;77.95
40059;SHT31;25763;49.972;8.568;2024-02-14T01:06:46;7.03;78.10
40059;SHT31;25763;49.972;8.568;2024-02-14T01:09:13;7.01;77.99
40059;SHT31;25763;49.972;8.568;2024-02-14T01:11:38;7.03;77.76
40059;SHT31;25763;49.972;8.568;2024-02-14T01:14:04;7.01;77.87
40059;SHT31;25763;49.972;8.568;2024-02-14T01:16:29;7.07;77.70
40059;SHT31;25763;49.972;8.568;2024-02-14T01:18:55;7.07;77.68
40059;SHT31;25763;49.972;8.568;2024-02-14T01:21:20;7.11;77.69
40059;SHT31;25763;49.972;8.568;2024-02-14T01:23:45;7.10;77.51
40059;SHT31;25763;49.972;8.568;2024-02-14T01:26:10;7.09;77.54
40059;SHT31;25763;49.972;8.568;2024-02-14T01:28:36;7.06;77.48
40059;SHT31;25763;49.972;8.568;2024-02-14T01:31:01;7.07;77.46
40059;SHT31;25763;49.972;8.568;2024-02-14T01:33:26;7.07;77.63
40059;SHT31;25763;49.972;8.568;2024-02-14T01:35:53;7.06;77.52
40059;SHT31;25763;49.972;8.568;2024-02-14T01:38:18;7.01;77.59
40059;SHT31;25763;49.972;8.568;2024-02-14T01:40:44;6.99;77.45
40059;SHT31;25763;49.972;8.568;2024-02-14T01:43:10;6.97;77.47
40059;SHT31;25763;49.972;8.568;2024-02-14T01:45:37;6.96;77.38
40059;SHT31;25763;49.972;8.568;2024-02-14T01:48:03;6.95;77.21
40059;SHT31;25763;49.972;8.568;2024-02-14T01:50:31;6.92;77.36
40059;SHT31;25763;49.972;8.568;2024-02-14T01:52:58;6.96;77.45
40059;SHT31;25763;49.972;8.568;2024-02-14T01:55:25;6.96;77.25
40059;SHT31;25763;49.972;8.568;2024-02-14T01:57:52;6.93;77.18
40059;SHT31;25763;49.972;8.568;2024-02-14T02:00:18;6.91;77.29
40059;SHT31;25763;49.972;8.568;2024-02-14T02:02:44;6.93;77.16
40059;SHT31;25763;49.972;8.568;2024-02-14T02:05:12;6.95;77.29
40059;SHT31;25763;49.972;8.568;2024-02-14T02:07:37;6.92;77.30
40059;SHT31;25763;49.972;8.568;2024-02-14T02:10:09;6.91;77.30
40059;SHT31;25763;49.972;8.568;2024-02-14T02:12:35;6.89;77.28
40059;SHT31;25763;49.972;8.568;2024-02-14T02:15:05;6.91;77.41
40059;SHT31;25763;49.972;8.568;2024-02-14T02:17:31;6.91;77.35
40059;SHT31;25763;49.972;8.568;2024-02-14T02:20:00;6.97;77.31
40059;SHT31;25763;49.972;8.568;2024-02-14T02:22:25;7.03;77.32
40059;SHT31;25763;49.972;8.568;2024-02-14T02:24:50;7.03;77.23
40059;SHT31;25763;49.972;8.568;2024-02-14T02:27:16;7.01;77.26
40059;SHT31;25763;49.972;8.568;2024-02-14T02:29:41;7.00;77.32
40059;SHT31;25763;49.972;8.568;2024-02-14T02:32:07;6.96;77.27
40059;SHT31;25763;49.972;8.568;2024-02-14T02:34:35;6.97;77.44
40059;SHT31;25763;49.972;8.568;2024-02-14T02:37:01;7.00;77.45
40059;SHT31;25763;49.972;8.568;2024-02-14T02:39:27;6.96;77.53
40059;SHT31;25763;49.972;8.568;2024-02-14T02:41:52;6.99;77.46
40059;SHT31;25763;49.972;8.568;2024-02-14T02:44:20;7.01;77.35
40059;SHT31;25763;49.972;8.568;2024-02-14T02:46:46;7.00;77.58
40059;SHT31;25763;49.972;8.568;2024-02-14T02:49:11;7.03;77.31
40059;SHT31;25763;49.972;8.568;2024-02-14T02:51:39;7.03;77.31
40059;SHT31;25763;49.972;8.568;2024-02-14T02:54:04;7.07;77.17
40059;SHT31;25763;49.972;8.568;2024-02-14T02:56:29;7.07;77.14
40059;SHT31;25763;49.972;8.568;2024-02-14T02:58:58;7.10;77.25
40059;SHT31;25763;49.972;8.568;2024-02-14T03:01:23;7.14;77.26
40059;SHT31;25763;49.972;8.568;2024-02-14T03:03:50;7.16;77.16
40059;SHT31;25763;49.972;8.568;2024-02-14T03:06:15;7.20;77.12
40059;SHT31;25763;49.972;8.568;2024-02-14T03:08:41;7.18;76.83
40059;SHT31;25763;49.972;8.568;2024-02-14T03:11:07;7.20;76.74
40059;SHT31;25763;49.972;8.568;2024-02-14T03:13:32;7.20;76.72
40059;SHT31;25763;49.972;8.568;2024-02-14T03:15:58;7.23;76.73
40059;SHT31;25763;49.972;8.568;2024-02-14T03:18:24;7.24;76.78
40059;SHT31;25763;49.972;8.568;2024-02-14T03:20:49;7.21;76.74
40059;SHT31;25763;49.972;8.568;2024-02-14T03:23:21;7.23;76.81
40059;SHT31;25763;49.972;8.568;2024-02-14T03:25:47;7.27;76.97
40059;SHT31;25763;49.972;8.568;2024-02-14T03:28:13;7.26;76.88
40059;SHT31;25763;49.972;8.568;2024-02-14T03:30:39;7.23;76.86
40059;SHT31;25763;49.972;8.568;2024-02-14T03:33:05;7.28;76.77
40059;SHT31;25763;49.972;8.568;2024-02-14T03:35:33;7.27;76.87
40059;SHT31;25763;49.972;8.568;2024-02-14T03:38:00;7.30;77.08
40059;SHT31;25763;49.972;8.568;2024-02-14T03:40:26;7.32;76.90
40059;SHT31;25763;49.972;8.568;2024-02-14T03:42:52;7.32;77.14
40059;SHT31;25763;49.972;8.568;2024-02-14T03:45:18;7.31;76.86
40059;SHT31;25763;49.972;8.568;2024-02-14T03:47:44;7.30;76.89
40059;SHT31;25763;49.972;8.568;2024-02-14T03:50:09;7.30;76.85
40059;SHT31;25763;49.972;8.568;2024-02-14T03:52:35;7.32;76.91
40059;SHT31;25763;49.972;8.568;2024-02-14T03:55:01;7.28;76.87
40059;SHT31;25763;49.972;8.568;2024-02-14T03:57:26;7.34;76.98
40059;SHT31;25763;49.972;8.568;2024-02-14T03:59:54;7.35;76.90
40059;SHT31;25763;49.972;8.568;2024-02-14T04:02:20;7.35;77.04
40059;SHT31;25763;49.972;8.568;2024-02-14T04:04:45;7.41;76.97
40059;SHT31;25763;49.972;8.568;2024-02-14T04:07:12;7.45;77.06
40059;SHT31;25763;49.972;8.568;2024-02-14T04:09:37;7.42;76.78
40059;SHT31;25763;49.972;8.568;2024-02-14T04:12:03;7.42;76.69
40059;SHT31;25763;49.972;8.568;2024-02-14T04:14:28;7.44;76.86
40059;SHT31;25763;49.972;8.568;2024-02-14T04:16:54;7.42;76.92
40059;SHT31;25763;49.972;8.568;2024-02-14T04:19:19;7.42;76.93
40059;SHT31;25763;49.972;8.568;2024-02-14T04:21:45;7.49;77.08
40059;SHT31;25763;49.972;8.568;2024-02-14T04:24:11;7.45;77.09
40059;SHT31;25763;49.972;8.568;2024-02-14T04:26:36;7.48;77.06
40059;SHT31;25763;49.972;8.568;2024-02-14T04:29:02;7.49;77.00
40059;SHT31;25763;49.972;8.568;2024-02-14T04:31:27;7.48;77.09
40059;SHT31;25763;49.972;8.568;2024-02-14T04:33:55;7.51;77.13
40059;SHT31;25763;49.972;8.568;2024-02-14T04:36:21;7.52;76.98
40059;SHT31;25763;49.972;8.568;2024-02-14T04:38:48;7.52;76.82
40059;SHT31;25763;49.972;8.568;2024-02-14T04:41:14;7.53;76.87
40059;SHT31;25763;49.972;8.568;2024-02-14T04:43:40;7.55;77.12
40059;SHT31;25763;49.972;8.568;2024-02-14T04:46:05;7.55;77.04
40059;SHT31;25763;49.972;8.568;2024-02-14T04:48:32;7.60;76.98
40059;SHT31;25763;49.972;8.568;2024-02-14T04:50:58;7.62;76.97
40059;SHT31;25763;49.972;8.568;2024-02-14T04:53:23;7.56;76.81
40059;SHT31;25763;49.972;8.568;2024-02-14T04:55:49;7.58;76.87
40059;SHT31;25763;49.972;8.568;2024-02-14T04:58:14;7.59;76.98
40059;SHT31;25763;49.972;8.568;2024-02-14T05:00:39;7.58;76.85
40059;SHT31;25763;49.972;8.568;2024-02-14T05:03:05;7.58;77.00
40059;SHT31;25763;49.972;8.568;2024-02-14T05:05:30;7.56;77.04
40059;SHT31;25763;49.972;8.568;2024-02-14T05:07:56;7.63;76.97
40059;SHT31;25763;49.972;8.568;2024-02-14T05:10:21;7.58;76.86
40059;SHT31;25763;49.972;8.568;2024-02-14T05:12:47;7.62;76.88
40059;SHT31;25763;49.972;8.568;2024-02-14T05:15:12;7.65;77.08
40059;SHT31;25763;49.972;8.568;2024-02-14T05:17:38;7.62;77.17
40059;SHT31;25763;49.972;8.568;2024-02-14T05:20:05;7.59;77.04
40059;SHT31;25763;49.972;8.568;2024-02-14T05:22:38;7.62;77.11
40059;SHT31;25763;49.972;8.568;2024-02-14T05:25:04;7.65;77.14
40059;SHT31;25763;49.972;8.568;2024-02-14T05:27:30;7.63;77.07
40059;SHT31;25763;49.972;8.568;2024-02-14T05:29:56;7.60;77.21
40059;SHT31;25763;49.972;8.568;2024-02-14T05:32:22;7.62;77.44
40059;SHT31;25763;49.972;8.568;2024-02-14T05:34:47;7.62;77.40
40059;SHT31;25763;49.972;8.568;2024-02-14T05:37:12;7.60;77.25
40059;SHT31;25763;49.972;8.568;2024-02-14T05:39:39;7.62;77.49
40059;SHT31;25763;49.972;8.568;2024-02-14T05:42:05;7.63;77.28
40059;SHT31;25763;49.972;8.568;2024-02-14T05:44:30;7.63;77.39
40059;SHT31;25763;49.972;8.568;2024-02-14T05:46:56;7.69;77.33
40059;SHT31;25763;49.972;8.568;2024-02-14T05:49:22;7.66;77.39
40059;SHT31;25763;49.972;8.568;2024-02-14T05:51:47;7.69;77.31
40059;SHT31;25763;49.972;8.568;2024-02-14T05:54:12;7.69;77.41
40059;SHT31;25763;49.972;8.568;2024-02-14T05:56:38;7.69;77.32
40059;SHT31;25763;49.972;8.568;2024-02-14T05:59:03;7.70;77.41
40059;SHT31;25763;49.972;8.568;2024-02-14T06:01:29;7.70;77.37
40059;SHT31;25763;49.972;8.568;2024-02-14T06:03:55;7.66;77.31
40059;SHT31;25763;49.972;8.568;2024-02-14T06:06:20;7.63;77.44
40059;SHT31;25763;49.972;8.568;2024-02-14T06:08:46;7.65;77.52
40059;SHT31;25763;49.972;8.568;2024-02-14T06:11:11;7.70;77.50
40059;SHT31;25763;49.972;8.568;2024-02-14T06:13:39;7.70;77.45
40059;SHT31;25763;49.972;8.568;2024-02-14T06:16:05;7.69;77.56
40059;SHT31;25763;49.972;8.568;2024-02-14T06:18:30;7.70;77.52
40059;SHT31;25763;49.972;8.568;2024-02-14T06:20:55;7.71;77.83
40059;SHT31;25763;49.972;8.568;2024-02-14T06:23:21;7.73;78.21
40059;SHT31;25763;49.972;8.568;2024-02-14T06:25:46;7.66;78.78
40059;SHT31;25763;49.972;8.568;2024-02-14T06:28:11;7.59;79.63
40059;SHT31;25763;49.972;8.568;2024-02-14T06:30:37;7.59;80.11
40059;SHT31;25763;49.972;8.568;2024-02-14T06:33:02;7.56;80.29
40059;SHT31;25763;49.972;8.568;2024-02-14T06:35:28;7.58;80.21
40059;SHT31;25763;49.972;8.568;2024-02-14T06:37:53;7.62;79.98
40059;SHT31;25763;49.972;8.568;2024-02-14T06:40:19;7.59;79.87
40059;SHT31;25763;49.972;8.568;2024-02-14T06:42:45;7.56;79.83
40059;SHT31;25763;49.972;8.568;2024-02-14T06:45:10;7.56;79.76
40059;SHT31;25763;49.972;8.568;2024-02-14T06:47:36;7.55;79.65
40059;SHT31;25763;49.972;8.568;2024-02-14T06:50:01;7.58;79.65
40059;SHT31;25763;49.972;8.568;2024-02-14T06:52:26;7.59;79.53
40059;SHT31;25763;49.972;8.568;2024-02-14T06:54:52;7.60;79.60
40059;SHT31;25763;49.972;8.568;2024-02-14T06:57:17;7.63;79.60
40059;SHT31;25763;49.972;8.568;2024-02-14T06:59:43;7.65;79.76
40059;SHT31;25763;49.972;8.568;2024-02-14T07:02:08;7.69;79.71
40059;SHT31;25763;49.972;8.568;2024-02-14T07:04:34;7.70;79.70
40059;SHT31;25763;49.972;8.568;2024-02-14T07:06:59;7.71;79.68
40059;SHT31;25763;49.972;8.568;2024-02-14T07:09:25;7.71;79.82
40059;SHT31;25763;49.972;8.568;2024-02-14T07:11:51;7.75;79.74
40059;SHT31;25763;49.972;8.568;2024-02-14T07:14:19;7.77;79.60
40059;SHT31;25763;49.972;8.568;2024-02-14T07:16:44;7.77;79.54
40059;SHT31;25763;49.972;8.568;2024-02-14T07:19:09;7.82;79.53
40059;SHT31;25763;49.972;8.568;2024-02-14T07:21:35;7.85;79.37
40059;SHT31;25763;49.972;8.568;2024-02-14T07:24:03;7.90;79.27
40059;SHT31;25763;49.972;8.568;2024-02-14T07:26:29;7.93;79.22
40059;SHT31;25763;49.972;8.568;2024-02-14T07:28:54;7.98;79.08
40059;SHT31;25763;49.972;8.568;2024-02-14T07:31:19;8.05;78.90
40059;SHT31;25763;49.972;8.568;2024-02-14T07:33:45;8.08;78.69
40059;SHT31;25763;49.972;8.568;2024-02-14T07:36:11;8.10;78.38
40059;SHT31;25763;49.972;8.568;2024-02-14T07:38:37;8.22;78.31
40059;SHT31;25763;49.972;8.568;2024-02-14T07:41:02;8.28;78.07
40059;SHT31;25763;49.972;8.568;2024-02-14T07:43:27;8.21;78.02
40059;SHT31;25763;49.972;8.568;2024-02-14T07:45:53;8.24;78.13
40059;SHT31;25763;49.972;8.568;2024-02-14T07:48:18;8.21;77.82
40059;SHT31;25763;49.972;8.568;2024-02-14T07:50:44;8.24;77.91
40059;SHT31;25763;49.972;8.568;2024-02-14T07:53:09;8.28;77.80
40059;SHT31;25763;49.972;8.568;2024-02-14T07:55:34;8.28;77.86
40059;SHT31;25763;49.972;8.568;2024-02-14T07:58:00;8.33;77.73
40059;SHT31;25763;49.972;8.568;2024-02-14T08:00:25;8.38;77.73
40059;SHT31;25763;49.972;8.568;2024-02-14T08:02:51;8.40;77.71
40059;SHT31;25763;49.972;8.568;2024-02-14T08:05:17;8.45;77.61
40059;SHT31;25763;49.972;8.568;2024-02-14T08:07:42;8.45;77.58
40059;SHT31;25763;49.972;8.568;2024-02-14T08:10:08;8.47;77.59
40059;SHT31;25763;49.972;8.568;2024-02-14T08:12:34;8.49;77.49
40059;SHT31;25763;49.972;8.568;2024-02-14T08:14:59;8.56;77.44
40059;SHT31;25763;49.972;8.568;2024-02-14T08:17:29;8.60;77.36
40059;SHT31;25763;49.972;8.568;2024-02-14T08:19:54;8.59;77.22
40059;SHT31;25763;49.972;8.568;2024-02-14T08:22:20;8.59;77.27
40059;SHT31;25763;49.972;8.568;2024-02-14T08:24:46;8.57;77.21
40059;SHT31;25763;49.972;8.568;2024-02-14T08:27:11;8.59;77.35
40059;SHT31;25763;49.972;8.568;2024-02-14T08:29:36;8.59;77.34
40059;SHT31;25763;49.972;8.568;2024-02-14T08:32:02;8.64;77.34
40059;SHT31;25763;49.972;8.568;2024-02-14T08:34:28;8.77;77.33
40059;SHT31;25763;49.972;8.568;2024-02-14T08:36:54;8.83;76.93
40059;SHT31;25763;49.972;8.568;2024-02-14T08:39:19;8.77;76.84
40059;SHT31;25763;49.972;8.568;2024-02-14T08:41:45;8.78;76.92
40059;SHT31;25763;49.972;8.568;2024-02-14T08:44:12;8.83;76.89
40059;SHT31;25763;49.972;8.568;2024-02-14T08:46:38;8.97;76.76
40059;SHT31;25763;49.972;8.568;2024-02-14T08:49:04;9.01;76.84
40059;SHT31;25763;49.972;8.568;2024-02-14T08:51:37;9.01;76.76
40059;SHT31;25763;49.972;8.568;2024-02-14T08:54:04;9.02;76.91
40059;SHT31;25763;49.972;8.568;2024-02-14T08:56:31;9.01;77.08
40059;SHT31;25763;49.972;8.568;2024-02-14T08:59:01;9.06;76.99
40059;SHT31;25763;49.972;8.568;2024-02-14T09:01:30;9.09;77.26
40059;SHT31;25763;49.972;8.568;2024-02-14T09:03:56;9.11;77.22
40059;SHT31;25763;49.972;8.568;2024-02-14T09:06:21;9.06;77.38
40059;SHT31;25763;49.972;8.568;2024-02-14T09:08:47;9.15;77.49
40059;SHT31;25763;49.972;8.568;2024-02-14T09:11:13;9.16;77.42
40059;SHT31;25763;49.972;8.568;2024-02-14T09:13:38;9.11;77.68
40059;SHT31;25763;49.972;8.568;2024-02-14T09:16:07;9.18;77.69
40059;SHT31;25763;49.972;8.568;2024-02-14T09:18:33;9.16;77.90
40059;SHT31;25763;49.972;8.568;2024-02-14T09:20:58;9.23;77.90
40059;SHT31;25763;49.972;8.568;2024-02-14T09:23:24;9.26;77.81
40059;SHT31;25763;49.972;8.568;2024-02-14T09:25:49;9.27;77.79
40059;SHT31;25763;49.972;8.568;2024-02-14T09:28:18;9.33;77.77
40059;SHT31;25763;49.972;8.568;2024-02-14T09:30:44;9.32;77.93
40059;SHT31;25763;49.972;8.568;2024-02-14T09:33:09;9.37;78.04
40059;SHT31;25763;49.972;8.568;2024-02-14T09:35:35;9.30;78.01
40059;SHT31;25763;49.972;8.568;2024-02-14T09:38:03;9.34;78.34
40059;SHT31;25763;49.972;8.568;2024-02-14T09:40:28;9.46;78.27
40059;SHT31;25763;49.972;8.568;2024-02-14T09:42:55;9.57;78.15
40059;SHT31;25763;49.972;8.568;2024-02-14T09:45:25;9.58;77.89
40059;SHT31;25763;49.972;8.568;2024-02-14T09:47:51;9.65;78.01
40059;SHT31;25763;49.972;8.568;2024-02-14T09:50:17;9.72;77.74
40059;SHT31;25763;49.972;8.568;2024-02-14T09:52:47;9.78;77.90
40059;SHT31;25763;49.972;8.568;2024-02-14T09:55:14;9.77;77.87
40059;SHT31;25763;49.972;8.568;2024-02-14T09:57:41;9.93;77.79
40059;SHT31;25763;49.972;8.568;2024-02-14T10:00:07;10.03;77.39
40059;SHT31;25763;49.972;8.568;2024-02-14T10:02:35;10.00;77.59
40059;SHT31;25763;49.972;8.568;2024-02-14T10:05:00;9.95;77.46
40059;SHT31;25763;49.972;8.568;2024-02-14T10:07:26;10.09;77.50
40059;SHT31;25763;49.972;8.568;2024-02-14T10:09:51;10.23;77.25
40059;SHT31;25763;49.972;8.568;2024-02-14T10:12:16;10.26;76.95
40059;SHT31;25763;49.972;8.568;2024-02-14T10:14:43;10.46;76.81
40059;SHT31;25763;49.972;8.568;2024-02-14T10:17:08;10.55;76.60
40059;SHT31;25763;49.972;8.568;2024-02-14T10:19:35;10.59;76.39
40059;SHT31;25763;49.972;8.568;2024-02-14T10:22:01;10.62;76.46
40059;SHT31;25763;49.972;8.568;2024-02-14T10:24:30;10.65;76.56
40059;SHT31;25763;49.972;8.568;2024-02-14T10:26:58;10.61;76.73
40059;SHT31;25763;49.972;8.568;2024-02-14T10:29:24;10.65;76.81
40059;SHT31;25763;49.972;8.568;2024-02-14T10:31:50;10.72;76.82
40059;SHT31;25763;49.972;8.568;2024-02-14T10:34:16;10.79;76.76
40059;SHT31;25763;49.972;8.568;2024-02-14T10:36:43;10.82;76.82
40059;SHT31;25763;49.972;8.568;2024-02-14T10:39:09;10.85;77.07
40059;SHT31;25763;49.972;8.568;2024-02-14T10:41:36;10.87;77.08
40059;SHT31;25763;49.972;8.568;2024-02-14T10:44:03;10.92;76.96
40059;SHT31;25763;49.972;8.568;2024-02-14T10:46:31;10.96;76.97
40059;SHT31;25763;49.972;8.568;2024-02-14T10:49:04;10.93;77.09
40059;SHT31;25763;49.972;8.568;2024-02-14T10:51:31;10.97;77.18
40059;SHT31;25763;49.972;8.568;2024-02-14T10:53:58;11.01;77.25
40059;SHT31;25763;49.972;8.568;2024-02-14T10:56:28;10.94;77.39
40059;SHT31;25763;49.972;8.568;2024-02-14T10:58:56;10.96;77.22
40059;SHT31;25763;49.972;8.568;2024-02-14T11:01:22;10.94;77.55
40059;SHT31;25763;49.972;8.568;2024-02-14T11:03:50;11.12;77.55
40059;SHT31;25763;49.972;8.568;2024-02-14T11:06:16;11.01;77.38
40059;SHT31;25763;49.972;8.568;2024-02-14T11:09:04;10.96;77.76
40059;SHT31;25763;49.972;8.568;2024-02-14T11:11:35;10.99;77.88
40059;SHT31;25763;49.972;8.568;2024-02-14T11:14:02;11.01;77.87
40059;SHT31;25763;49.972;8.568;2024-02-14T11:16:30;11.07;77.96
40059;SHT31;25763;49.972;8.568;2024-02-14T11:19:11;11.21;77.75
40059;SHT31;25763;49.972;8.568;2024-02-14T11:21:40;11.25;77.57
40059;SHT31;25763;49.972;8.568;2024-02-14T11:24:09;11.24;77.67
40059;SHT31;25763;49.972;8.568;2024-02-14T11:26:39;11.29;77.57
40059;SHT31;25763;49.972;8.568;2024-02-14T11:29:05;11.24;77.62
40059;SHT31;25763;49.972;8.568;2024-02-14T11:31:33;11.20;77.74
40059;SHT31;25763;49.972;8.568;2024-02-14T11:34:05;11.28;77.91
40059;SHT31;25763;49.972;8.568;2024-02-14T11:36:32;11.24;77.91
40059;SHT31;25763;49.972;8.568;2024-02-14T11:38:58;11.35;78.03
40059;SHT31;25763;49.972;8.568;2024-02-14T11:41:23;11.38;77.89
40059;SHT31;25763;49.972;8.568;2024-02-14T11:43:52;11.45;77.93
40059;SHT31;25763;49.972;8.568;2024-02-14T11:46:17;11.59;77.77
40059;SHT31;25763;49.972;8.568;2024-02-14T11:48:43;11.59;77.60
40059;SHT31;25763;49.972;8.568;2024-02-14T11:51:11;11.62;77.76
40059;SHT31;25763;49.972;8.568;2024-02-14T11:53:36;11.74;77.51
40059;SHT31;25763;49.972;8.568;2024-02-14T11:56:02;11.83;77.46
40059;SHT31;25763;49.972;8.568;2024-02-14T11:58:28;11.99;77.20
40059;SHT31;25763;49.972;8.568;2024-02-14T12:00:53;11.93;76.90
40059;SHT31;25763;49.972;8.568;2024-02-14T12:03:20;11.84;77.24
40059;SHT31;25763;49.972;8.568;2024-02-14T12:05:48;11.77;77.63
40059;SHT31;25763;49.972;8.568;2024-02-14T12:08:16;11.61;77.67
40059;SHT31;25763;49.972;8.568;2024-02-14T12:10:45;11.52;78.32
40059;SHT31;25763;49.972;8.568;2024-02-14T12:13:13;11.52;78.42
40059;SHT31;25763;49.972;8.568;2024-02-14T12:15:40;11.44;78.66
40059;SHT31;25763;49.972;8.568;2024-02-14T12:18:06;11.36;78.65
40059;SHT31;25763;49.972;8.568;2024-02-14T12:20:33;11.41;78.71
40059;SHT31;25763;49.972;8.568;2024-02-14T12:22:59;11.31;78.79
40059;SHT31;25763;49.972;8.568;2024-02-14T12:25:25;11.32;78.79
40059;SHT31;25763;49.972;8.568;2024-02-14T12:27:51;11.35;78.86
40059;SHT31;25763;49.972;8.568;2024-02-14T12:30:17;11.42;78.76
40059;SHT31;25763;49.972;8.568;2024-02-14T12:32:43;11.52;78.53
40059;SHT31;25763;49.972;8.568;2024-02-14T12:35:08;11.53;78.35
40059;SHT31;25763;49.972;8.568;2024-02-14T12:37:34;11.58;78.35
40059;SHT31;25763;49.972;8.568;2024-02-14T12:39:59;11.67;78.28
40059;SHT31;25763;49.972;8.568;2024-02-14T12:42:25;11.59;78.08
40059;SHT31;25763;49.972;8.568;2024-02-14T12:44:54;11.63;78.26
40059;SHT31;25763;49.972;8.568;2024-02-14T12:47:20;11.61;78.18
40059;SHT31;25763;49.972;8.568;2024-02-14T12:49:47;11.65;78.31
40059;SHT31;25763;49.972;8.568;2024-02-14T12:52:13;11.69;78.10
40059;SHT31;25763;49.972;8.568;2024-02-14T12:54:39;11.73;78.11
40059;SHT31;25763;49.972;8.568;2024-02-14T12:57:04;11.69;78.22
40059;SHT31;25763;49.972;8.568;2024-02-14T12:59:30;11.70;78.16
40059;SHT31;25763;49.972;8.568;2024-02-14T13:01:56;11.80;78.10
40059;SHT31;25763;49.972;8.568;2024-02-14T13:04:21;11.77;78.29
40059;SHT31;25763;49.972;8.568;2024-02-14T13:06:47;11.80;78.33
40059;SHT31;25763;49.972;8.568;2024-02-14T13:09:13;11.84;78.18
40059;SHT31;25763;49.972;8.568;2024-02-14T13:11:39;11.88;78.12
40059;SHT31;25763;49.972;8.568;2024-02-14T13:14:06;11.93;78.24
40059;SHT31;25763;49.972;8.568;2024-02-14T13:16:31;11.86;78.46
40059;SHT31;25763;49.972;8.568;2024-02-14T13:18:57;11.86;78.42
40059;SHT31;25763;49.972;8.568;2024-02-14T13:21:22;11.83;78.58
40059;SHT31;25763;49.972;8.568;2024-02-14T13:23:47;11.79;78.84
40059;SHT31;25763;49.972;8.568;2024-02-14T13:26:13;11.74;79.16
40059;SHT31;25763;49.972;8.568;2024-02-14T13:28:39;11.67;79.90
40059;SHT31;25763;49.972;8.568;2024-02-14T13:31:06;11.62;80.62
40059;SHT31;25763;49.972;8.568;2024-02-14T13:33:31;11.51;81.59
40059;SHT31;25763;49.972;8.568;2024-02-14T13:35:56;11.45;82.18
40059;SHT31;25763;49.972;8.568;2024-02-14T13:38:22;11.48;82.33
40059;SHT31;25763;49.972;8.568;2024-02-14T13:40:47;11.49;82.69
40059;SHT31;25763;49.972;8.568;2024-02-14T13:43:14;11.36;83.03
40059;SHT31;25763;49.972;8.568;2024-02-14T13:45:43;11.34;83.28
40059;SHT31;25763;49.972;8.568;2024-02-14T13:48:09;11.44;83.40
40059;SHT31;25763;49.972;8.568;2024-02-14T13:50:35;11.42;83.65
40059;SHT31;25763;49.972;8.568;2024-02-14T13:53:01;11.42;83.92
40059;SHT31;25763;49.972;8.568;2024-02-14T13:55:26;11.41;83.98
40059;SHT31;25763;49.972;8.568;2024-02-14T13:57:51;11.35;84.08
40059;SHT31;25763;49.972;8.568;2024-02-14T14:00:17;11.38;84.06
40059;SHT31;25763;49.972;8.568;2024-02-14T14:02:42;11.36;84.21
40059;SHT31;25763;49.972;8.568;2024-02-14T14:05:09;11.35;84.42
40059;SHT31;25763;49.972;8.568;2024-02-14T14:07:35;11.29;84.45
40059;SHT31;25763;49.972;8.568;2024-02-14T14:10:02;11.36;84.64
40059;SHT31;25763;49.972;8.568;2024-02-14T14:12:28;11.27;84.59
40059;SHT31;25763;49.972;8.568;2024-02-14T14:14:53;11.27;84.50
40059;SHT31;25763;49.972;8.568;2024-02-14T14:17:19;11.18;84.63
40059;SHT31;25763;49.972;8.568;2024-02-14T14:19:44;11.24;84.61
40059;SHT31;25763;49.972;8.568;2024-02-14T14:22:09;11.25;84.79
40059;SHT31;25763;49.972;8.568;2024-02-14T14:24:35;11.24;85.05
40059;SHT31;25763;49.972;8.568;2024-02-14T14:27:00;11.29;84.99
40059;SHT31;25763;49.972;8.568;2024-02-14T14:29:25;11.29;85.29
40059;SHT31;25763;49.972;8.568;2024-02-14T14:31:51;11.28;85.32
40059;SHT31;25763;49.972;8.568;2024-02-14T14:34:16;11.24;85.38
40059;SHT31;25763;49.972;8.568;2024-02-14T14:36:41;11.22;85.51
40059;SHT31;25763;49.972;8.568;2024-02-14T14:39:07;11.27;85.57
40059;SHT31;25763;49.972;8.568;2024-02-14T14:41:32;11.22;85.60
40059;SHT31;25763;49.972;8.568;2024-02-14T14:43:57;11.27;85.67
40059;SHT31;25763;49.972;8.568;2024-02-14T14:46:25;11.12;85.73
40059;SHT31;25763;49.972;8.568;2024-02-14T14:48:50;11.17;85.78
40059;SHT31;25763;49.972;8.568;2024-02-14T14:51:15;11.14;85.76
40059;SHT31;25763;49.972;8.568;2024-02-14T14:53:41;11.11;85.69
40059;SHT31;25763;49.972;8.568;2024-02-14T14:56:06;11.12;85.79
40059;SHT31;25763;49.972;8.568;2024-02-14T14:58:31;11.14;85.70
40059;SHT31;25763;49.972;8.568;2024-02-14T15:00:59;11.11;85.78
40059;SHT31;25763;49.972;8.568;2024-02-14T15:03:25;11.12;85.76
40059;SHT31;25763;49.972;8.568;2024-02-14T15:05:50;11.07;85.72
40059;SHT31;25763;49.972;8.568;2024-02-14T15:08:16;11.08;85.82
40059;SHT31;25763;49.972;8.568;2024-02-14T15:10:48;11.10;86.17
40059;SHT31;25763;49.972;8.568;2024-02-14T15:13:17;11.03;86.15
40059;SHT31;25763;49.972;8.568;2024-02-14T15:15:42;11.03;86.45
40059;SHT31;25763;49.972;8.568;2024-02-14T15:18:08;11.03;86.66
40059;SHT31;25763;49.972;8.568;2024-02-14T15:20:33;10.99;86.97
40059;SHT31;25763;49.972;8.568;2024-02-14T15:23:01;10.96;87.14
40059;SHT31;25763;49.972;8.568;2024-02-14T15:25:27;11.00;87.10
40059;SHT31;25763;49.972;8.568;2024-02-14T15:27:53;11.00;86.96
40059;SHT31;25763;49.972;8.568;2024-02-14T15:30:25;11.06;87.01
40059;SHT31;25763;49.972;8.568;2024-02-14T15:33:09;11.00;87.20